sensor_id;sensor_type;location;lat;lon;timestamp;temperature;humidity
4677;DHT22;2352;48.180;11.478;2022-08-21T00:00:12;20.20;99.90
4677;DHT22;2352;48.180;11.478;2022-08-21T00:03:16;20.20;99.90
4677;DHT22;2352;48.180;11.478;2022-08-21T00:06:19;20.20;99.90
4677;DHT22;2352;48.180;11.478;2022-08-21T00:09:22;20.20;99.90
4677;DHT22;2352;48.180;11.478;2022-08-21T00:12:26;20.20;99.90
4677;DHT22;2352;48.180;11.478;2022-08-21T00:15:31;20.20;99.90
4677;DHT22;2352;48.180;11.478;2022-08-21T00:18:35;20.10;99.90
4677;DHT22;2352;48.180;11.478;2022-08-21T00:21:38;20.10;99.90
4677;DHT22;2352;48.180;11.478;2022-08-21T00:24:45;20.10;99.90
4677;DHT22;2352;48.180;11.478;2022-08-21T00:27:49;20.10;99.90
4677;DHT22;2352;48.180;11.478;2022-08-21T00:30:53;20.10;99.90
4677;DHT22;2352;48.180;11.478;2022-08-21T00:33:56;20.00;99.90
4677;DHT22;2352;48.180;11.478;2022-08-21T00:37:02;20.00;99.90
4677;DHT22;2352;48.180;11.478;2022-08-21T00:40:07;20.00;99.90
4677;DHT22;2352;48.180;11.478;2022-08-21T00:43:15;20.00;99.90
4677;DHT22;2352;48.180;11.478;2022-08-21T00:46:19;20.10;99.90
4677;DHT22;2352;48.180;11.478;2022-08-21T00:49:25;20.00;99.90
4677;DHT22;2352;48.180;11.478;2022-08-21T00:52:30;20.00;99.90
4677;DHT22;2352;48.180;11.478;2022-08-21T00:55:36;20.00;99.90
4677;DHT22;2352;48.180;11.478;2022-08-21T00:58:42;19.90;99.90
4677;DHT22;2352;48.180;11.478;2022-08-21T01:01:47;19.90;99.90
4677;DHT22;2352;48.180;11.478;2022-08-21T01:04:51;19.80;99.90
4677;DHT22;2352;48.180;11.478;2022-08-21T01:07:54;19.90;99.90
4677;DHT22;2352;48.180;11.478;2022-08-21T01:10:59;19.80;99.90
4677;DHT22;2352;48.180;11.478;2022-08-21T01:14:05;19.80;99.90
4677;DHT22;2352;48.180;11.478;2022-08-21T01:17:08;19.80;99.90
4677;DHT22;2352;48.180;11.478;2022-08-21T01:20:12;19.80;99.90
4677;DHT22;2352;48.180;11.478;2022-08-21T01:23:17;19.70;99.90
4677;DHT22;2352;48.180;11.478;2022-08-21T01:26:23;19.60;99.90
4677;DHT22;2352;48.180;11.478;2022-08-21T01:29:39;19.50;99.90
4677;DHT22;2352;48.180;11.478;2022-08-21T01:32:45;19.50;99.90
4677;DHT22;2352;48.180;11.478;2022-08-21T01:35:48;19.50;99.90
4677;DHT22;2352;48.180;11.478;2022-08-21T01:38:52;19.50;99.90
4677;DHT22;2352;48.180;11.478;2022-08-21T01:41:55;19.50;99.90
4677;DHT22;2352;48.180;11.478;2022-08-21T01:44:58;19.60;99.90
4677;DHT22;2352;48.180;11.478;2022-08-21T01:48:01;19.60;99.90
4677;DHT22;2352;48.180;11.478;2022-08-21T01:51:05;19.50;99.90
4677;DHT22;2352;48.180;11.478;2022-08-21T01:54:10;19.60;99.90
4677;DHT22;2352;48.180;11.478;2022-08-21T01:57:13;19.50;99.90
4677;DHT22;2352;48.180;11.478;2022-08-21T02:00:19;19.50;99.90
4677;DHT22;2352;48.180;11.478;2022-08-21T02:03:24;19.50;99.90
4677;DHT22;2352;48.180;11.478;2022-08-21T02:06:37;19.40;99.90
4677;DHT22;2352;48.180;11.478;2022-08-21T02:09:41;19.40;99.90
4677;DHT22;2352;48.180;11.478;2022-08-21T02:12:44;19.40;99.90
4677;DHT22;2352;48.180;11.478;2022-08-21T02:15:47;19.40;99.90
4677;DHT22;2352;48.180;11.478;2022-08-21T02:18:51;19.40;99.90
4677;DHT22;2352;48.180;11.478;2022-08-21T02:21:54;19.30;99.90
4677;DHT22;2352;48.180;11.478;2022-08-21T02:24:58;19.30;99.90
4677;DHT22;2352;48.180;11.478;2022-08-21T02:28:03;19.30;99.90
4677;DHT22;2352;48.180;11.478;2022-08-21T02:31:07;19.30;99.90
4677;DHT22;2352;48.180;11.478;2022-08-21T02:34:10;19.30;99.90
4677;DHT22;2352;48.180;11.478;2022-08-21T02:37:12;19.30;99.90
4677;DHT22;2352;48.180;11.478;2022-08-21T02:40:18;19.30;99.90
4677;DHT22;2352;48.180;11.478;2022-08-21T02:43:23;19.10;99.90
4677;DHT22;2352;48.180;11.478;2022-08-21T02:46:27;19.20;99.90
4677;DHT22;2352;48.180;11.478;2022-08-21T02:49:30;19.20;99.90
4677;DHT22;2352;48.180;11.478;2022-08-21T02:52:33;19.20;99.90
4677;DHT22;2352;48.180;11.478;2022-08-21T02:55:38;19.20;99.90
4677;DHT22;2352;48.180;11.478;2022-08-21T02:58:43;19.20;99.90
4677;DHT22;2352;48.180;11.478;2022-08-21T03:01:46;19.20;99.90
4677;DHT22;2352;48.180;11.478;2022-08-21T03:04:49;19.20;99.90
4677;DHT22;2352;48.180;11.478;2022-08-21T03:07:52;19.20;99.90
4677;DHT22;2352;48.180;11.478;2022-08-21T03:10:57;19.20;99.90
4677;DHT22;2352;48.180;11.478;2022-08-21T03:14:02;19.20;99.90
4677;DHT22;2352;48.180;11.478;2022-08-21T03:17:06;19.20;99.90
4677;DHT22;2352;48.180;11.478;2022-08-21T03:20:10;19.20;99.90
4677;DHT22;2352;48.180;11.478;2022-08-21T03:23:15;19.20;99.90
4677;DHT22;2352;48.180;11.478;2022-08-21T03:26:21;19.20;99.90
4677;DHT22;2352;48.180;11.478;2022-08-21T03:29:24;19.20;99.90
4677;DHT22;2352;48.180;11.478;2022-08-21T03:32:27;19.20;99.90
4677;DHT22;2352;48.180;11.478;2022-08-21T03:35:30;19.20;99.90
4677;DHT22;2352;48.180;11.478;2022-08-21T03:38:35;19.20;99.90
4677;DHT22;2352;48.180;11.478;2022-08-21T03:41:39;19.10;99.90
4677;DHT22;2352;48.180;11.478;2022-08-21T03:44:42;19.10;99.90
4677;DHT22;2352;48.180;11.478;2022-08-21T03:47:54;19.00;99.90
4677;DHT22;2352;48.180;11.478;2022-08-21T03:50:58;19.10;99.90
4677;DHT22;2352;48.180;11.478;2022-08-21T03:54:02;19.10;99.90
4677;DHT22;2352;48.180;11.478;2022-08-21T03:57:06;19.10;99.60
4677;DHT22;2352;48.180;11.478;2022-08-21T04:00:12;19.10;99.40
4677;DHT22;2352;48.180;11.478;2022-08-21T04:03:16;19.10;99.50
4677;DHT22;2352;48.180;11.478;2022-08-21T04:06:19;19.10;99.60
4677;DHT22;2352;48.180;11.478;2022-08-21T04:09:22;19.10;99.70
4677;DHT22;2352;48.180;11.478;2022-08-21T04:12:26;19.00;99.70
4677;DHT22;2352;48.180;11.478;2022-08-21T04:15:29;19.00;99.80
4677;DHT22;2352;48.180;11.478;2022-08-21T04:18:32;19.00;99.90
4677;DHT22;2352;48.180;11.478;2022-08-21T04:21:36;19.00;99.80
4677;DHT22;2352;48.180;11.478;2022-08-21T04:24:40;18.90;99.60
4677;DHT22;2352;48.180;11.478;2022-08-21T04:27:44;18.90;99.70
4677;DHT22;2352;48.180;11.478;2022-08-21T04:30:48;19.00;99.90
4677;DHT22;2352;48.180;11.478;2022-08-21T04:33:51;19.00;99.80
4677;DHT22;2352;48.180;11.478;2022-08-21T04:36:54;19.00;99.80
4677;DHT22;2352;48.180;11.478;2022-08-21T04:39:57;18.90;99.70
4677;DHT22;2352;48.180;11.478;2022-08-21T04:43:04;18.90;99.80
4677;DHT22;2352;48.180;11.478;2022-08-21T04:46:08;18.90;99.90
4677;DHT22;2352;48.180;11.478;2022-08-21T04:49:14;18.90;99.70
4677;DHT22;2352;48.180;11.478;2022-08-21T04:52:20;19.00;99.60
4677;DHT22;2352;48.180;11.478;2022-08-21T04:55:24;19.00;99.20
4677;DHT22;2352;48.180;11.478;2022-08-21T04:58:30;19.00;99.30
4677;DHT22;2352;48.180;11.478;2022-08-21T05:01:36;18.90;99.60
4677;DHT22;2352;48.180;11.478;2022-08-21T05:04:43;18.90;99.50
4677;DHT22;2352;48.180;11.478;2022-08-21T05:07:47;18.90;99.50
4677;DHT22;2352;48.180;11.478;2022-08-21T05:10:51;18.90;99.60
4677;DHT22;2352;48.180;11.478;2022-08-21T05:14:02;19.00;99.50
4677;DHT22;2352;48.180;11.478;2022-08-21T05:17:05;18.90;99.90
4677;DHT22;2352;48.180;11.478;2022-08-21T05:20:11;18.90;99.90
4677;DHT22;2352;48.180;11.478;2022-08-21T05:23:14;18.80;99.90
4677;DHT22;2352;48.180;11.478;2022-08-21T05:26:17;18.90;99.90
4677;DHT22;2352;48.180;11.478;2022-08-21T05:29:22;18.90;99.90
4677;DHT22;2352;48.180;11.478;2022-08-21T05:32:25;18.90;99.90
4677;DHT22;2352;48.180;11.478;2022-08-21T05:35:30;18.90;99.90
4677;DHT22;2352;48.180;11.478;2022-08-21T05:38:33;18.90;99.90
4677;DHT22;2352;48.180;11.478;2022-08-21T05:41:36;18.90;99.90
4677;DHT22;2352;48.180;11.478;2022-08-21T05:44:41;18.80;99.90
4677;DHT22;2352;48.180;11.478;2022-08-21T05:47:46;18.80;99.90
4677;DHT22;2352;48.180;11.478;2022-08-21T05:50:50;18.80;99.90
4677;DHT22;2352;48.180;11.478;2022-08-21T05:53:53;18.90;99.90
4677;DHT22;2352;48.180;11.478;2022-08-21T05:56:56;18.80;99.90
4677;DHT22;2352;48.180;11.478;2022-08-21T06:00:01;18.80;99.90
4677;DHT22;2352;48.180;11.478;2022-08-21T06:03:04;18.80;99.90
4677;DHT22;2352;48.180;11.478;2022-08-21T06:06:07;18.90;99.90
4677;DHT22;2352;48.180;11.478;2022-08-21T06:09:10;18.90;99.90
4677;DHT22;2352;48.180;11.478;2022-08-21T06:12:14;19.00;99.90
4677;DHT22;2352;48.180;11.478;2022-08-21T06:15:18;19.00;99.90
4677;DHT22;2352;48.180;11.478;2022-08-21T06:18:21;19.00;99.90
4677;DHT22;2352;48.180;11.478;2022-08-21T06:21:24;19.00;99.90
4677;DHT22;2352;48.180;11.478;2022-08-21T06:24:27;18.90;99.90
4677;DHT22;2352;48.180;11.478;2022-08-21T06:27:30;19.00;99.90
4677;DHT22;2352;48.180;11.478;2022-08-21T06:30:35;18.90;99.90
4677;DHT22;2352;48.180;11.478;2022-08-21T06:33:38;19.00;99.90
4677;DHT22;2352;48.180;11.478;2022-08-21T06:36:41;19.00;99.90
4677;DHT22;2352;48.180;11.478;2022-08-21T06:39:44;19.10;99.90
4677;DHT22;2352;48.180;11.478;2022-08-21T06:42:50;19.10;99.90
4677;DHT22;2352;48.180;11.478;2022-08-21T06:45:54;19.10;99.90
4677;DHT22;2352;48.180;11.478;2022-08-21T06:48:57;19.10;99.90
4677;DHT22;2352;48.180;11.478;2022-08-21T06:52:01;19.00;99.90
4677;DHT22;2352;48.180;11.478;2022-08-21T06:55:05;19.00;99.90
4677;DHT22;2352;48.180;11.478;2022-08-21T06:58:09;19.10;99.90
4677;DHT22;2352;48.180;11.478;2022-08-21T07:01:14;19.20;99.90
4677;DHT22;2352;48.180;11.478;2022-08-21T07:04:17;19.20;99.90
4677;DHT22;2352;48.180;11.478;2022-08-21T07:07:21;19.30;99.90
4677;DHT22;2352;48.180;11.478;2022-08-21T07:10:24;19.10;99.90
4677;DHT22;2352;48.180;11.478;2022-08-21T07:13:28;19.20;99.90
4677;DHT22;2352;48.180;11.478;2022-08-21T07:16:33;19.40;99.90
4677;DHT22;2352;48.180;11.478;2022-08-21T07:19:36;19.50;99.60
4677;DHT22;2352;48.180;11.478;2022-08-21T07:22:39;19.60;99.20
4677;DHT22;2352;48.180;11.478;2022-08-21T07:25:42;19.60;97.80
4677;DHT22;2352;48.180;11.478;2022-08-21T07:28:45;19.70;97.60
4677;DHT22;2352;48.180;11.478;2022-08-21T07:31:50;19.80;98.10
4677;DHT22;2352;48.180;11.478;2022-08-21T07:34:53;19.90;97.70
4677;DHT22;2352;48.180;11.478;2022-08-21T07:37:56;20.00;98.00
4677;DHT22;2352;48.180;11.478;2022-08-21T07:41:00;20.10;97.90
4677;DHT22;2352;48.180;11.478;2022-08-21T07:44:03;20.20;98.00
4677;DHT22;2352;48.180;11.478;2022-08-21T07:47:08;20.40;97.60
4677;DHT22;2352;48.180;11.478;2022-08-21T07:50:12;20.40;96.70
4677;DHT22;2352;48.180;11.478;2022-08-21T07:53:15;20.50;96.20
4677;DHT22;2352;48.180;11.478;2022-08-21T07:56:18;20.60;96.10
4677;DHT22;2352;48.180;11.478;2022-08-21T07:59:21;20.30;94.60
4677;DHT22;2352;48.180;11.478;2022-08-21T08:02:27;20.20;95.90
4677;DHT22;2352;48.180;11.478;2022-08-21T08:05:31;20.30;95.90
4677;DHT22;2352;48.180;11.478;2022-08-21T08:08:34;20.50;95.90
4677;DHT22;2352;48.180;11.478;2022-08-21T08:11:39;20.60;95.00
4677;DHT22;2352;48.180;11.478;2022-08-21T08:14:44;20.70;95.80
4677;DHT22;2352;48.180;11.478;2022-08-21T08:17:49;20.90;95.60
4677;DHT22;2352;48.180;11.478;2022-08-21T08:20:51;20.90;95.90
4677;DHT22;2352;48.180;11.478;2022-08-21T08:23:55;21.10;95.90
4677;DHT22;2352;48.180;11.478;2022-08-21T08:26:58;21.20;95.40
4677;DHT22;2352;48.180;11.478;2022-08-21T08:30:02;21.20;94.20
4677;DHT22;2352;48.180;11.478;2022-08-21T08:33:14;21.30;94.90
4677;DHT22;2352;48.180;11.478;2022-08-21T08:36:19;21.20;93.60
4677;DHT22;2352;48.180;11.478;2022-08-21T08:39:23;21.20;93.00
4677;DHT22;2352;48.180;11.478;2022-08-21T08:42:32;21.20;94.30
4677;DHT22;2352;48.180;11.478;2022-08-21T08:45:38;21.40;94.00
4677;DHT22;2352;48.180;11.478;2022-08-21T08:48:50;21.50;94.70
4677;DHT22;2352;48.180;11.478;2022-08-21T08:52:00;21.50;94.50
4677;DHT22;2352;48.180;11.478;2022-08-21T08:55:07;21.70;94.70
4677;DHT22;2352;48.180;11.478;2022-08-21T08:58:15;21.70;94.40
4677;DHT22;2352;48.180;11.478;2022-08-21T09:01:20;21.80;94.10
4677;DHT22;2352;48.180;11.478;2022-08-21T09:04:29;21.90;93.80
4677;DHT22;2352;48.180;11.478;2022-08-21T09:07:46;22.00;94.20
4677;DHT22;2352;48.180;11.478;2022-08-21T09:10:57;22.10;92.60
4677;DHT22;2352;48.180;11.478;2022-08-21T09:14:11;21.90;93.20
4677;DHT22;2352;48.180;11.478;2022-08-21T09:17:23;22.10;93.40
4677;DHT22;2352;48.180;11.478;2022-08-21T09:20:39;22.20;94.90
4677;DHT22;2352;48.180;11.478;2022-08-21T09:23:49;22.10;94.10
4677;DHT22;2352;48.180;11.478;2022-08-21T09:27:02;22.30;93.70
4677;DHT22;2352;48.180;11.478;2022-08-21T09:30:09;22.40;93.50
4677;DHT22;2352;48.180;11.478;2022-08-21T09:33:13;22.50;92.80
4677;DHT22;2352;48.180;11.478;2022-08-21T09:36:25;22.70;93.20
4677;DHT22;2352;48.180;11.478;2022-08-21T09:39:39;22.90;93.40
4677;DHT22;2352;48.180;11.478;2022-08-21T09:42:54;22.90;93.10
4677;DHT22;2352;48.180;11.478;2022-08-21T09:46:05;22.90;93.20
4677;DHT22;2352;48.180;11.478;2022-08-21T09:49:08;22.90;93.10
4677;DHT22;2352;48.180;11.478;2022-08-21T09:52:21;22.90;92.40
4677;DHT22;2352;48.180;11.478;2022-08-21T09:55:31;22.90;92.90
4677;DHT22;2352;48.180;11.478;2022-08-21T09:59:00;22.90;92.40
4677;DHT22;2352;48.180;11.478;2022-08-21T10:02:23;23.20;93.10
4677;DHT22;2352;48.180;11.478;2022-08-21T10:05:26;23.30;91.90
4677;DHT22;2352;48.180;11.478;2022-08-21T10:08:32;23.40;92.60
4677;DHT22;2352;48.180;11.478;2022-08-21T10:11:36;23.40;92.00
4677;DHT22;2352;48.180;11.478;2022-08-21T10:14:47;23.30;91.90
4677;DHT22;2352;48.180;11.478;2022-08-21T10:17:59;23.20;92.40
4677;DHT22;2352;48.180;11.478;2022-08-21T10:21:09;23.40;92.30
4677;DHT22;2352;48.180;11.478;2022-08-21T10:24:19;23.40;91.80
4677;DHT22;2352;48.180;11.478;2022-08-21T10:27:40;23.40;91.20
4677;DHT22;2352;48.180;11.478;2022-08-21T10:30:49;23.50;91.50
4677;DHT22;2352;48.180;11.478;2022-08-21T10:34:03;23.50;92.00
4677;DHT22;2352;48.180;11.478;2022-08-21T10:37:18;23.50;91.40
4677;DHT22;2352;48.180;11.478;2022-08-21T10:40:28;23.60;91.00
4677;DHT22;2352;48.180;11.478;2022-08-21T10:43:38;23.80;90.90
4677;DHT22;2352;48.180;11.478;2022-08-21T10:46:50;23.90;90.80
4677;DHT22;2352;48.180;11.478;2022-08-21T10:49:59;24.00;89.60
4677;DHT22;2352;48.180;11.478;2022-08-21T10:53:16;23.90;90.50
4677;DHT22;2352;48.180;11.478;2022-08-21T10:56:25;24.00;91.40
4677;DHT22;2352;48.180;11.478;2022-08-21T10:59:34;24.10;90.30
4677;DHT22;2352;48.180;11.478;2022-08-21T11:02:42;24.20;91.50
4677;DHT22;2352;48.180;11.478;2022-08-21T11:05:51;24.70;90.90
4677;DHT22;2352;48.180;11.478;2022-08-21T11:08:58;24.90;89.10
4677;DHT22;2352;48.180;11.478;2022-08-21T11:12:09;25.20;84.70
4677;DHT22;2352;48.180;11.478;2022-08-21T11:15:30;25.00;85.60
4677;DHT22;2352;48.180;11.478;2022-08-21T11:18:38;24.80;85.50
4677;DHT22;2352;48.180;11.478;2022-08-21T11:21:44;24.60;84.20
4677;DHT22;2352;48.180;11.478;2022-08-21T11:24:54;24.50;86.00
4677;DHT22;2352;48.180;11.478;2022-08-21T11:28:06;24.40;83.90
4677;DHT22;2352;48.180;11.478;2022-08-21T11:31:24;24.70;82.50
4677;DHT22;2352;48.180;11.478;2022-08-21T11:34:50;25.10;79.70
4677;DHT22;2352;48.180;11.478;2022-08-21T11:38:09;25.30;77.90
4677;DHT22;2352;48.180;11.478;2022-08-21T11:41:24;25.20;77.20
4677;DHT22;2352;48.180;11.478;2022-08-21T11:44:40;25.40;79.50
4677;DHT22;2352;48.180;11.478;2022-08-21T11:47:56;25.30;72.00
4677;DHT22;2352;48.180;11.478;2022-08-21T11:51:05;25.30;71.50
4677;DHT22;2352;48.180;11.478;2022-08-21T11:54:18;25.00;71.60
4677;DHT22;2352;48.180;11.478;2022-08-21T11:57:27;25.20;72.60
4677;DHT22;2352;48.180;11.478;2022-08-21T12:00:38;25.50;69.80
4677;DHT22;2352;48.180;11.478;2022-08-21T12:03:44;25.50;69.00
4677;DHT22;2352;48.180;11.478;2022-08-21T12:06:53;25.70;62.60
4677;DHT22;2352;48.180;11.478;2022-08-21T12:09:57;25.90;62.80
4677;DHT22;2352;48.180;11.478;2022-08-21T12:13:07;26.00;59.80
4677;DHT22;2352;48.180;11.478;2022-08-21T12:16:15;26.10;64.20
4677;DHT22;2352;48.180;11.478;2022-08-21T12:19:31;26.40;64.70
4677;DHT22;2352;48.180;11.478;2022-08-21T12:22:38;26.60;61.40
4677;DHT22;2352;48.180;11.478;2022-08-21T12:25:44;26.70;58.70
4677;DHT22;2352;48.180;11.478;2022-08-21T12:28:48;26.70;61.30
4677;DHT22;2352;48.180;11.478;2022-08-21T12:32:01;26.70;63.20
4677;DHT22;2352;48.180;11.478;2022-08-21T12:35:09;26.70;61.80
4677;DHT22;2352;48.180;11.478;2022-08-21T12:38:28;26.60;63.50
4677;DHT22;2352;48.180;11.478;2022-08-21T12:41:34;26.40;65.90
4677;DHT22;2352;48.180;11.478;2022-08-21T12:44:43;26.30;64.00
4677;DHT22;2352;48.180;11.478;2022-08-21T12:47:56;26.30;64.50
4677;DHT22;2352;48.180;11.478;2022-08-21T12:51:07;26.30;65.60
4677;DHT22;2352;48.180;11.478;2022-08-21T12:54:23;26.20;65.50
4677;DHT22;2352;48.180;11.478;2022-08-21T12:57:28;26.10;64.20
4677;DHT22;2352;48.180;11.478;2022-08-21T13:00:32;26.20;65.00
4677;DHT22;2352;48.180;11.478;2022-08-21T13:03:37;26.30;63.40
4677;DHT22;2352;48.180;11.478;2022-08-21T13:06:43;26.50;63.50
4677;DHT22;2352;48.180;11.478;2022-08-21T13:09:48;26.70;61.20
4677;DHT22;2352;48.180;11.478;2022-08-21T13:12:54;26.80;59.70
4677;DHT22;2352;48.180;11.478;2022-08-21T13:16:00;27.10;62.60
4677;DHT22;2352;48.180;11.478;2022-08-21T13:19:07;27.10;58.00
4677;DHT22;2352;48.180;11.478;2022-08-21T13:22:14;27.20;59.40
4677;DHT22;2352;48.180;11.478;2022-08-21T13:25:36;27.40;60.00
4677;DHT22;2352;48.180;11.478;2022-08-21T13:28:39;27.50;60.40
4677;DHT22;2352;48.180;11.478;2022-08-21T13:31:47;27.40;60.40
4677;DHT22;2352;48.180;11.478;2022-08-21T13:34:52;27.20;57.30
4677;DHT22;2352;48.180;11.478;2022-08-21T13:37:56;27.10;58.40
4677;DHT22;2352;48.180;11.478;2022-08-21T13:41:03;27.00;58.00
4677;DHT22;2352;48.180;11.478;2022-08-21T13:44:15;26.90;60.80
4677;DHT22;2352;48.180;11.478;2022-08-21T13:47:21;26.70;59.70
4677;DHT22;2352;48.180;11.478;2022-08-21T13:50:26;26.70;63.00
4677;DHT22;2352;48.180;11.478;2022-08-21T13:53:33;26.80;61.80
4677;DHT22;2352;48.180;11.478;2022-08-21T13:56:43;27.00;63.10
4677;DHT22;2352;48.180;11.478;2022-08-21T13:59:46;27.20;59.70
4677;DHT22;2352;48.180;11.478;2022-08-21T14:02:54;27.40;62.60
4677;DHT22;2352;48.180;11.478;2022-08-21T14:06:10;27.50;58.50
4677;DHT22;2352;48.180;11.478;2022-08-21T14:09:25;27.70;58.60
4677;DHT22;2352;48.180;11.478;2022-08-21T14:12:32;27.70;59.70
4677;DHT22;2352;48.180;11.478;2022-08-21T14:15:38;27.90;60.10
4677;DHT22;2352;48.180;11.478;2022-08-21T14:18:50;27.90;59.80
4677;DHT22;2352;48.180;11.478;2022-08-21T14:21:55;28.00;57.10
4677;DHT22;2352;48.180;11.478;2022-08-21T14:25:03;28.00;56.70
4677;DHT22;2352;48.180;11.478;2022-08-21T14:28:16;28.00;57.00
4677;DHT22;2352;48.180;11.478;2022-08-21T14:31:29;28.00;58.30
4677;DHT22;2352;48.180;11.478;2022-08-21T14:34:34;28.10;58.20
4677;DHT22;2352;48.180;11.478;2022-08-21T14:37:41;28.20;57.40
4677;DHT22;2352;48.180;11.478;2022-08-21T14:40:49;28.20;56.20
4677;DHT22;2352;48.180;11.478;2022-08-21T14:43:53;28.20;56.00
4677;DHT22;2352;48.180;11.478;2022-08-21T14:47:10;28.20;55.20
4677;DHT22;2352;48.180;11.478;2022-08-21T14:50:13;28.10;56.50
4677;DHT22;2352;48.180;11.478;2022-08-21T14:53:18;28.20;55.70
4677;DHT22;2352;48.180;11.478;2022-08-21T14:56:21;28.30;55.80
4677;DHT22;2352;48.180;11.478;2022-08-21T14:59:25;28.30;56.30
4677;DHT22;2352;48.180;11.478;2022-08-21T15:02:28;28.30;55.60
4677;DHT22;2352;48.180;11.478;2022-08-21T15:05:31;28.30;56.50
4677;DHT22;2352;48.180;11.478;2022-08-21T15:08:36;28.20;55.50
4677;DHT22;2352;48.180;11.478;2022-08-21T15:11:39;28.20;53.20
4677;DHT22;2352;48.180;11.478;2022-08-21T15:14:44;28.30;55.50
4677;DHT22;2352;48.180;11.478;2022-08-21T15:17:46;28.20;52.50
4677;DHT22;2352;48.180;11.478;2022-08-21T15:20:50;28.20;51.80
4677;DHT22;2352;48.180;11.478;2022-08-21T15:23:54;28.10;52.10
4677;DHT22;2352;48.180;11.478;2022-08-21T15:26:59;28.00;53.20
4677;DHT22;2352;48.180;11.478;2022-08-21T15:30:04;28.00;51.20
4677;DHT22;2352;48.180;11.478;2022-08-21T15:33:07;27.80;51.50
4677;DHT22;2352;48.180;11.478;2022-08-21T15:36:12;27.80;53.10
4677;DHT22;2352;48.180;11.478;2022-08-21T15:39:17;27.80;53.20
4677;DHT22;2352;48.180;11.478;2022-08-21T15:42:25;27.70;54.20
4677;DHT22;2352;48.180;11.478;2022-08-21T15:45:29;27.70;52.40
4677;DHT22;2352;48.180;11.478;2022-08-21T15:48:32;27.70;54.00
4677;DHT22;2352;48.180;11.478;2022-08-21T15:51:35;27.70;53.40
4677;DHT22;2352;48.180;11.478;2022-08-21T15:54:46;27.60;52.60
4677;DHT22;2352;48.180;11.478;2022-08-21T15:57:51;27.60;51.60
4677;DHT22;2352;48.180;11.478;2022-08-21T16:00:59;27.50;51.60
4677;DHT22;2352;48.180;11.478;2022-08-21T16:04:04;27.50;52.80
4677;DHT22;2352;48.180;11.478;2022-08-21T16:07:07;27.40;52.80
4677;DHT22;2352;48.180;11.478;2022-08-21T16:10:12;27.30;53.20
4677;DHT22;2352;48.180;11.478;2022-08-21T16:13:18;27.40;52.00
4677;DHT22;2352;48.180;11.478;2022-08-21T16:16:24;27.30;53.40
4677;DHT22;2352;48.180;11.478;2022-08-21T16:19:28;27.20;54.60
4677;DHT22;2352;48.180;11.478;2022-08-21T16:22:31;27.20;53.30
4677;DHT22;2352;48.180;11.478;2022-08-21T16:25:47;27.20;53.90
4677;DHT22;2352;48.180;11.478;2022-08-21T16:28:53;27.10;52.70
4677;DHT22;2352;48.180;11.478;2022-08-21T16:31:57;27.10;51.40
4677;DHT22;2352;48.180;11.478;2022-08-21T16:35:01;27.00;53.90
4677;DHT22;2352;48.180;11.478;2022-08-21T16:38:05;26.90;52.20
4677;DHT22;2352;48.180;11.478;2022-08-21T16:41:12;26.90;53.90
4677;DHT22;2352;48.180;11.478;2022-08-21T16:44:16;26.90;55.00
4677;DHT22;2352;48.180;11.478;2022-08-21T16:47:20;26.90;53.60
4677;DHT22;2352;48.180;11.478;2022-08-21T16:50:27;26.80;54.80
4677;DHT22;2352;48.180;11.478;2022-08-21T16:53:31;26.70;54.80
4677;DHT22;2352;48.180;11.478;2022-08-21T16:56:35;26.70;55.40
4677;DHT22;2352;48.180;11.478;2022-08-21T16:59:41;26.70;55.50
4677;DHT22;2352;48.180;11.478;2022-08-21T17:02:48;26.60;55.90
4677;DHT22;2352;48.180;11.478;2022-08-21T17:05:54;26.60;55.30
4677;DHT22;2352;48.180;11.478;2022-08-21T17:08:58;26.50;56.40
4677;DHT22;2352;48.180;11.478;2022-08-21T17:12:03;26.50;56.50
4677;DHT22;2352;48.180;11.478;2022-08-21T17:15:12;26.40;56.60
4677;DHT22;2352;48.180;11.478;2022-08-21T17:18:23;26.40;56.60
4677;DHT22;2352;48.180;11.478;2022-08-21T17:21:26;26.40;55.80
4677;DHT22;2352;48.180;11.478;2022-08-21T17:24:29;26.30;56.10
4677;DHT22;2352;48.180;11.478;2022-08-21T17:27:33;26.30;56.30
4677;DHT22;2352;48.180;11.478;2022-08-21T17:30:36;26.30;57.30
4677;DHT22;2352;48.180;11.478;2022-08-21T17:33:45;26.20;57.30
4677;DHT22;2352;48.180;11.478;2022-08-21T17:36:51;26.10;56.90
4677;DHT22;2352;48.180;11.478;2022-08-21T17:39:54;26.10;56.70
4677;DHT22;2352;48.180;11.478;2022-08-21T17:42:59;26.10;56.90
4677;DHT22;2352;48.180;11.478;2022-08-21T17:46:03;26.00;58.20
4677;DHT22;2352;48.180;11.478;2022-08-21T17:49:06;26.00;58.90
4677;DHT22;2352;48.180;11.478;2022-08-21T17:52:09;26.00;59.20
4677;DHT22;2352;48.180;11.478;2022-08-21T17:55:14;25.90;59.30
4677;DHT22;2352;48.180;11.478;2022-08-21T17:58:19;25.90;60.80
4677;DHT22;2352;48.180;11.478;2022-08-21T18:01:31;25.80;59.70
4677;DHT22;2352;48.180;11.478;2022-08-21T18:04:35;25.80;60.20
4677;DHT22;2352;48.180;11.478;2022-08-21T18:07:38;25.70;59.60
4677;DHT22;2352;48.180;11.478;2022-08-21T18:10:44;25.60;59.70
4677;DHT22;2352;48.180;11.478;2022-08-21T18:13:49;25.50;59.40
4677;DHT22;2352;48.180;11.478;2022-08-21T18:16:53;25.40;61.70
4677;DHT22;2352;48.180;11.478;2022-08-21T18:19:56;25.20;60.90
4677;DHT22;2352;48.180;11.478;2022-08-21T18:23:00;25.10;62.40
4677;DHT22;2352;48.180;11.478;2022-08-21T18:26:04;25.00;62.50
4677;DHT22;2352;48.180;11.478;2022-08-21T18:29:10;25.00;61.70
4677;DHT22;2352;48.180;11.478;2022-08-21T18:32:15;24.90;63.70
4677;DHT22;2352;48.180;11.478;2022-08-21T18:35:32;24.70;63.50
4677;DHT22;2352;48.180;11.478;2022-08-21T18:38:35;24.70;65.70
4677;DHT22;2352;48.180;11.478;2022-08-21T18:41:38;24.70;66.70
4677;DHT22;2352;48.180;11.478;2022-08-21T18:44:45;24.70;66.00
4677;DHT22;2352;48.180;11.478;2022-08-21T18:47:51;24.60;67.40
4677;DHT22;2352;48.180;11.478;2022-08-21T18:50:54;24.50;66.80
4677;DHT22;2352;48.180;11.478;2022-08-21T18:53:58;24.50;67.60
4677;DHT22;2352;48.180;11.478;2022-08-21T18:57:01;24.50;68.20
4677;DHT22;2352;48.180;11.478;2022-08-21T19:00:14;24.40;68.70
4677;DHT22;2352;48.180;11.478;2022-08-21T19:03:21;24.40;68.20
4677;DHT22;2352;48.180;11.478;2022-08-21T19:06:24;24.30;68.90
4677;DHT22;2352;48.180;11.478;2022-08-21T19:09:28;24.20;69.80
4677;DHT22;2352;48.180;11.478;2022-08-21T19:12:32;24.10;69.60
4677;DHT22;2352;48.180;11.478;2022-08-21T19:15:38;24.10;70.00
4677;DHT22;2352;48.180;11.478;2022-08-21T19:18:41;24.00;71.10
4677;DHT22;2352;48.180;11.478;2022-08-21T19:21:44;24.00;71.20
4677;DHT22;2352;48.180;11.478;2022-08-21T19:24:50;23.90;71.40
4677;DHT22;2352;48.180;11.478;2022-08-21T19:27:53;23.80;71.80
4677;DHT22;2352;48.180;11.478;2022-08-21T19:30:59;23.80;71.70
4677;DHT22;2352;48.180;11.478;2022-08-21T19:34:11;23.60;72.90
4677;DHT22;2352;48.180;11.478;2022-08-21T19:37:16;23.50;73.00
4677;DHT22;2352;48.180;11.478;2022-08-21T19:40:21;23.50;74.20
4677;DHT22;2352;48.180;11.478;2022-08-21T19:43:24;23.50;74.10
4677;DHT22;2352;48.180;11.478;2022-08-21T19:46:33;23.40;74.80
4677;DHT22;2352;48.180;11.478;2022-08-21T19:49:37;23.30;75.20
4677;DHT22;2352;48.180;11.478;2022-08-21T19:52:42;23.30;76.20